PWSweather.com
Personal Weather Stations
Station Observations
KCTHAMDEN
Dunbar Hill, Hamden, CT 06514

Dunbar HillHamden, CT 06514

Lat: 41.365437, Lon: -72.956532

Elevation: 200

Station Type: Davis Vantage Pro2+

www.hamdenweather.com

High Low Average
Temperature 82.2°F27.9°C 70.6°F21.4°C 74.4°F23.6°C
Dew Point 75.9°F24.4°C 69.7°F20.9°C 71.9°F22.2°C
Winds 3.4 mph 5.5 kmh Calm Calm 1.0 mph SE1.6 kmh SE
Wind Gusts 8.0 mph12.9 kmh -- 2.0 mph3.2 kmh
Humidity 98% 77% 92%
Pressure 30.09 in1019.0 mb 29.98 in1015.2 mb -
Precipitation 0.51 in13.0 mm - -
Hour Temp Dew Point Humidity Winds Wind Gusts Pressure Precip Precip Rate Daily Precip Total
12:00 AM 70.5°F21.4°C 69.6°F20.9°C 97% Calm Calm -- 29.99 in1015.6 mb - 0.00 in0.0 mm 0.00 in0.0 mm
12:15 AM 70.5°F21.4°C 69.6°F20.9°C 97% Calm Calm -- 30.00 in1015.9 mb - 0.00 in0.0 mm 0.00 in0.0 mm
12:30 AM 70.6°F21.4°C 69.7°F20.9°C 97% Calm Calm -- 30.00 in1015.9 mb - 0.01 in0.3 mm 0.01 in0.3 mm
12:45 AM 70.6°F21.4°C 69.7°F20.9°C 97% Calm Calm -- 30.00 in1015.9 mb - 0.00 in0.0 mm 0.01 in0.3 mm
01:00 AM 70.7°F21.5°C 69.8°F21.0°C 97% Calm Calm -- 30.00 in1015.9 mb - 0.00 in0.0 mm 0.01 in0.3 mm
01:15 AM 70.7°F21.5°C 69.8°F21.0°C 97% Calm Calm -- 30.00 in1015.9 mb - 0.01 in0.3 mm 0.02 in0.5 mm
01:30 AM 70.6°F21.4°C 69.7°F20.9°C 97% Calm Calm -- 30.00 in1015.9 mb - 0.00 in0.0 mm 0.02 in0.5 mm
01:45 AM 70.8°F21.6°C 69.9°F21.1°C 97% Calm Calm -- 30.01 in1016.3 mb - 0.00 in0.0 mm 0.02 in0.5 mm
02:00 AM 70.8°F21.6°C 69.9°F21.1°C 97% Calm Calm -- 30.00 in1015.9 mb - 0.00 in0.0 mm 0.02 in0.5 mm
02:15 AM 70.7°F21.5°C 69.8°F21.0°C 97% Calm Calm -- 29.99 in1015.6 mb - 0.01 in0.3 mm 0.03 in0.8 mm
02:30 AM 70.8°F21.6°C 70.2°F21.2°C 98% Calm Calm -- 30.00 in1015.9 mb - 0.00 in0.0 mm 0.03 in0.8 mm
02:45 AM 70.9°F21.6°C 70.3°F21.3°C 98% Calm Calm -- 29.99 in1015.6 mb - 0.00 in0.0 mm 0.03 in0.8 mm
03:00 AM 71.0°F21.7°C 70.4°F21.3°C 98% Calm Calm -- 29.99 in1015.6 mb - 0.00 in0.0 mm 0.03 in0.8 mm
03:15 AM 70.9°F21.6°C 70.3°F21.3°C 98% Calm Calm -- 29.98 in1015.2 mb - 0.00 in0.0 mm 0.03 in0.8 mm
03:30 AM 70.8°F21.6°C 70.2°F21.2°C 98% Calm Calm -- 29.98 in1015.2 mb - 0.01 in0.3 mm 0.04 in1.0 mm
03:45 AM 70.9°F21.6°C 70.3°F21.3°C 98% Calm Calm -- 29.98 in1015.2 mb - 0.01 in0.3 mm 0.04 in1.0 mm
04:00 AM 70.9°F21.6°C 70.3°F21.3°C 98% Calm Calm -- 29.98 in1015.2 mb - 0.00 in0.0 mm 0.04 in1.0 mm
04:15 AM 71.0°F21.7°C 70.4°F21.3°C 98% Calm Calm -- 29.98 in1015.2 mb - 0.00 in0.0 mm 0.04 in1.0 mm
04:30 AM 71.2°F21.8°C 70.6°F21.4°C 98% Calm Calm -- 29.98 in1015.2 mb - 0.00 in0.0 mm 0.04 in1.0 mm
04:45 AM 71.2°F21.8°C 70.6°F21.4°C 98% Calm Calm -- 29.99 in1015.6 mb - 0.00 in0.0 mm 0.04 in1.0 mm
05:00 AM 71.2°F21.8°C 70.6°F21.4°C 98% Calm Calm -- 30.00 in1015.9 mb - 0.00 in0.0 mm 0.04 in1.0 mm
05:15 AM 71.3°F21.8°C 70.7°F21.5°C 98% Calm Calm -- 30.00 in1015.9 mb - 0.00 in0.0 mm 0.04 in1.0 mm
05:30 AM 71.3°F21.8°C 70.7°F21.5°C 98% Calm Calm 1.0 mph1.6 kmh 30.00 in1015.9 mb - 0.00 in0.0 mm 0.04 in1.0 mm
05:45 AM 71.3°F21.8°C 70.7°F21.5°C 98% Calm Calm -- 30.01 in1016.3 mb - 0.00 in0.0 mm 0.04 in1.0 mm
06:00 AM 71.3°F21.8°C 70.7°F21.5°C 98% Calm Calm -- 30.01 in1016.3 mb - 0.00 in0.0 mm 0.04 in1.0 mm
06:15 AM 71.1°F21.7°C 70.5°F21.4°C 98% 0.3 mph NNW0.5 kmh NNW -- 30.02 in1016.6 mb - 0.00 in0.0 mm 0.04 in1.0 mm
06:30 AM 71.0°F21.7°C 70.4°F21.3°C 98% 0.1 mph WSW0.2 kmh WSW 2.0 mph3.2 kmh 30.02 in1016.6 mb - 0.00 in0.0 mm 0.04 in1.0 mm
06:45 AM 71.0°F21.7°C 70.4°F21.3°C 98% Calm Calm 1.0 mph1.6 kmh 30.02 in1016.6 mb - 0.00 in0.0 mm 0.04 in1.0 mm
07:00 AM 70.9°F21.6°C 70.3°F21.3°C 98% Calm Calm -- 30.02 in1016.6 mb - 0.00 in0.0 mm 0.04 in1.0 mm
07:15 AM 70.9°F21.6°C 70.3°F21.3°C 98% 3.0 mph W4.8 kmh W 5.0 mph8.0 kmh 30.03 in1016.9 mb - 0.00 in0.0 mm 0.04 in1.0 mm
07:30 AM 70.8°F21.6°C 70.2°F21.2°C 98% Calm Calm -- 30.03 in1016.9 mb - 0.00 in0.0 mm 0.04 in1.0 mm
07:45 AM 70.9°F21.6°C 70.3°F21.3°C 98% Calm Calm 2.0 mph3.2 kmh 30.03 in1016.9 mb - 0.00 in0.0 mm 0.04 in1.0 mm
08:00 AM 70.7°F21.5°C 70.1°F21.2°C 98% Calm Calm -- 30.03 in1016.9 mb - 0.00 in0.0 mm 0.04 in1.0 mm
08:15 AM 70.8°F21.6°C 70.2°F21.2°C 98% Calm Calm -- 30.03 in1016.9 mb - 0.00 in0.0 mm 0.04 in1.0 mm
08:30 AM 70.9°F21.6°C 70.3°F21.3°C 98% Calm Calm -- 30.03 in1016.9 mb - 0.00 in0.0 mm 0.04 in1.0 mm
08:45 AM 71.4°F21.9°C 70.8°F21.6°C 98% 0.7 mph SE1.1 kmh SE 1.0 mph1.6 kmh 30.04 in1017.3 mb - 0.00 in0.0 mm 0.04 in1.0 mm
09:00 AM 71.8°F22.1°C 71.2°F21.8°C 98% 0.5 mph WSW0.8 kmh WSW 3.0 mph4.8 kmh 30.04 in1017.3 mb - 0.00 in0.0 mm 0.04 in1.0 mm
09:15 AM 71.9°F22.2°C 71.3°F21.8°C 98% 0.2 mph NNE0.3 kmh NNE 2.0 mph3.2 kmh 30.03 in1016.9 mb - 0.00 in0.0 mm 0.04 in1.0 mm
09:30 AM 71.9°F22.2°C 71.3°F21.8°C 98% 0.5 mph N0.8 kmh N 2.0 mph3.2 kmh 30.03 in1016.9 mb - 0.00 in0.0 mm 0.04 in1.0 mm
09:45 AM 72.1°F22.3°C 71.5°F21.9°C 98% 0.6 mph WSW1.0 kmh WSW 3.0 mph4.8 kmh 30.04 in1017.3 mb - 0.00 in0.0 mm 0.04 in1.0 mm
10:00 AM 72.3°F22.4°C 71.4°F21.9°C 97% Calm Calm -- 30.04 in1017.3 mb - 0.00 in0.0 mm 0.04 in1.0 mm
10:15 AM 72.8°F22.7°C 71.9°F22.2°C 97% Calm Calm -- 30.05 in1017.6 mb - 0.00 in0.0 mm 0.04 in1.0 mm
10:30 AM 73.1°F22.8°C 72.2°F22.3°C 97% 1.5 mph E2.4 kmh E 2.0 mph3.2 kmh 30.05 in1017.6 mb - 0.00 in0.0 mm 0.04 in1.0 mm
10:45 AM 73.9°F23.3°C 73.0°F22.8°C 97% 2.4 mph NE3.9 kmh NE 2.0 mph3.2 kmh 30.06 in1017.9 mb - 0.00 in0.0 mm 0.04 in1.0 mm
11:00 AM 74.8°F23.8°C 73.6°F23.1°C 96% 1.9 mph NE3.1 kmh NE 4.0 mph6.4 kmh 30.06 in1017.9 mb - 0.00 in0.0 mm 0.04 in1.0 mm
11:15 AM 75.1°F23.9°C 73.3°F22.9°C 94% 0.5 mph NE0.8 kmh NE -- 30.06 in1017.9 mb - 0.00 in0.0 mm 0.04 in1.0 mm
11:30 AM 75.4°F24.1°C 72.9°F22.7°C 92% Calm Calm -- 30.06 in1017.9 mb - 0.00 in0.0 mm 0.04 in1.0 mm
11:45 AM 75.9°F24.4°C 73.4°F23.0°C 92% 1.2 mph NE1.9 kmh NE 3.0 mph4.8 kmh 30.06 in1017.9 mb - 0.00 in0.0 mm 0.04 in1.0 mm
12:00 PM 77.8°F25.4°C 73.9°F23.3°C 88% 2.0 mph N3.2 kmh N 5.0 mph8.0 kmh 30.05 in1017.6 mb - 0.00 in0.0 mm 0.04 in1.0 mm
12:15 PM 78.5°F25.8°C 74.0°F23.3°C 86% 0.1 mph NNE0.2 kmh NNE 2.0 mph3.2 kmh 30.05 in1017.6 mb - 0.00 in0.0 mm 0.04 in1.0 mm
12:30 PM 79.7°F26.5°C 75.5°F24.2°C 87% 1.0 mph E1.6 kmh E 2.0 mph3.2 kmh 30.05 in1017.6 mb - 0.00 in0.0 mm 0.04 in1.0 mm
12:45 PM 81.1°F27.3°C 75.5°F24.2°C 83% 1.5 mph NE2.4 kmh NE 2.0 mph3.2 kmh 30.05 in1017.6 mb - 0.00 in0.0 mm 0.04 in1.0 mm
01:00 PM 81.5°F27.5°C 74.7°F23.7°C 80% 0.1 mph NE0.2 kmh NE 1.0 mph1.6 kmh 30.05 in1017.6 mb - 0.00 in0.0 mm 0.04 in1.0 mm
01:15 PM 81.2°F27.3°C 74.1°F23.4°C 79% 0.1 mph N0.2 kmh N 1.0 mph1.6 kmh 30.05 in1017.6 mb - 0.00 in0.0 mm 0.04 in1.0 mm
01:30 PM 81.6°F27.6°C 74.5°F23.6°C 79% 2.2 mph E3.5 kmh E 7.0 mph11.3 kmh 30.04 in1017.3 mb - 0.00 in0.0 mm 0.04 in1.0 mm
01:45 PM 82.2°F27.9°C 74.2°F23.4°C 77% 0.5 mph WSW0.8 kmh WSW 2.0 mph3.2 kmh 30.04 in1017.3 mb - 0.00 in0.0 mm 0.04 in1.0 mm
02:00 PM 80.9°F27.2°C 74.6°F23.7°C 81% 3.4 mph ESE5.5 kmh ESE 7.0 mph11.3 kmh 30.04 in1017.3 mb - 0.00 in0.0 mm 0.04 in1.0 mm
02:15 PM 77.9°F25.5°C 72.3°F22.4°C 83% 2.5 mph ESE4.0 kmh ESE 8.0 mph12.9 kmh 30.05 in1017.6 mb - 0.04 in1.0 mm 0.08 in2.0 mm
02:30 PM 76.1°F24.5°C 71.9°F22.2°C 87% Calm Calm -- 30.05 in1017.6 mb - 0.11 in2.8 mm 0.18 in4.6 mm
02:45 PM 75.5°F24.2°C 72.3°F22.4°C 90% Calm Calm -- 30.05 in1017.6 mb - 0.08 in2.0 mm 0.26 in6.6 mm
03:00 PM 75.8°F24.3°C 73.6°F23.1°C 93% Calm Calm -- 30.04 in1017.3 mb - 0.06 in1.5 mm 0.32 in8.1 mm
03:15 PM 76.0°F24.4°C 73.9°F23.3°C 93% Calm Calm -- 30.04 in1017.3 mb - 0.05 in1.3 mm 0.37 in9.4 mm
03:30 PM 76.9°F24.9°C 74.7°F23.7°C 93% Calm Calm -- 30.04 in1017.3 mb - 0.03 in0.8 mm 0.40 in10.2 mm
03:45 PM 77.5°F25.3°C 75.0°F23.9°C 92% Calm Calm 1.0 mph1.6 kmh 30.03 in1016.9 mb - 0.04 in1.0 mm 0.44 in11.2 mm
04:00 PM 78.8°F26.0°C 75.9°F24.4°C 91% 1.3 mph ENE2.1 kmh ENE 5.0 mph8.0 kmh 30.02 in1016.6 mb - 0.03 in0.8 mm 0.46 in11.7 mm
04:15 PM 79.1°F26.2°C 75.6°F24.2°C 89% 2.7 mph ENE4.3 kmh ENE 5.0 mph8.0 kmh 30.02 in1016.6 mb - 0.02 in0.5 mm 0.47 in11.9 mm
04:30 PM 78.9°F26.1°C 74.3°F23.5°C 86% 0.4 mph SW0.6 kmh SW 6.0 mph9.7 kmh 30.02 in1016.6 mb - 0.02 in0.5 mm 0.49 in12.4 mm
04:45 PM 79.1°F26.2°C 72.8°F22.7°C 81% 1.0 mph WSW1.6 kmh WSW 2.0 mph3.2 kmh 30.03 in1016.9 mb - 0.01 in0.3 mm 0.50 in12.7 mm
05:00 PM 79.6°F26.4°C 73.6°F23.1°C 82% 2.0 mph WSW3.2 kmh WSW 4.0 mph6.4 kmh 30.03 in1016.9 mb - 0.00 in0.0 mm 0.50 in12.7 mm
05:15 PM 80.1°F26.7°C 74.5°F23.6°C 83% 0.1 mph ENE0.2 kmh ENE -- 30.02 in1016.6 mb - 0.00 in0.0 mm 0.50 in12.7 mm
05:30 PM 80.2°F26.8°C 73.5°F23.1°C 80% 2.0 mph WSW3.2 kmh WSW 4.0 mph6.4 kmh 30.03 in1016.9 mb - 0.00 in0.0 mm 0.50 in12.7 mm
05:45 PM 79.7°F26.5°C 73.3°F22.9°C 81% 2.9 mph SE4.7 kmh SE 4.0 mph6.4 kmh 30.02 in1016.6 mb - 0.00 in0.0 mm 0.50 in12.7 mm
06:00 PM 79.0°F26.1°C 73.4°F23.0°C 83% 0.9 mph WSW1.4 kmh WSW 2.0 mph3.2 kmh 30.03 in1016.9 mb - 0.00 in0.0 mm 0.50 in12.7 mm
06:15 PM 78.5°F25.8°C 73.6°F23.1°C 85% 0.3 mph NNE0.5 kmh NNE 1.0 mph1.6 kmh 30.03 in1016.9 mb - 0.00 in0.0 mm 0.50 in12.7 mm
06:30 PM 78.2°F25.7°C 73.3°F22.9°C 85% 0.6 mph NE1.0 kmh NE 2.0 mph3.2 kmh 30.03 in1016.9 mb - 0.00 in0.0 mm 0.50 in12.7 mm
06:45 PM 78.1°F25.6°C 73.6°F23.1°C 86% 0.5 mph NNE0.8 kmh NNE 2.0 mph3.2 kmh 30.03 in1016.9 mb - 0.00 in0.0 mm 0.50 in12.7 mm
07:00 PM 77.8°F25.4°C 73.3°F22.9°C 86% Calm Calm -- 30.03 in1016.9 mb - 0.00 in0.0 mm 0.50 in12.7 mm
07:15 PM 77.2°F25.1°C 73.0°F22.8°C 87% Calm Calm -- 30.04 in1017.3 mb - 0.00 in0.0 mm 0.50 in12.7 mm
07:30 PM 76.5°F24.7°C 72.7°F22.6°C 88% Calm Calm -- 30.04 in1017.3 mb - 0.00 in0.0 mm 0.50 in12.7 mm
07:45 PM 76.1°F24.5°C 72.6°F22.6°C 89% 0.1 mph WSW0.2 kmh WSW 1.0 mph1.6 kmh 30.04 in1017.3 mb - 0.00 in0.0 mm 0.50 in12.7 mm
08:00 PM 75.7°F24.3°C 72.6°F22.6°C 90% Calm Calm -- 30.05 in1017.6 mb - 0.00 in0.0 mm 0.50 in12.7 mm
08:15 PM 75.3°F24.1°C 72.5°F22.5°C 91% Calm Calm -- 30.05 in1017.6 mb - 0.00 in0.0 mm 0.50 in12.7 mm
08:30 PM 75.0°F23.9°C 72.5°F22.5°C 92% Calm Calm -- 30.06 in1017.9 mb - 0.00 in0.0 mm 0.50 in12.7 mm
08:45 PM 74.8°F23.8°C 72.6°F22.6°C 93% Calm Calm -- 30.06 in1017.9 mb - 0.01 in0.3 mm 0.51 in13.0 mm
09:00 PM 74.5°F23.6°C 72.3°F22.4°C 93% Calm Calm -- 30.06 in1017.9 mb - 0.00 in0.0 mm 0.51 in13.0 mm
09:15 PM 74.0°F23.3°C 71.9°F22.2°C 93% 1.1 mph NW1.8 kmh NW 2.0 mph3.2 kmh 30.07 in1018.3 mb - 0.00 in0.0 mm 0.51 in13.0 mm
09:30 PM 73.7°F23.2°C 71.5°F21.9°C 93% 0.1 mph WSW0.2 kmh WSW 1.0 mph1.6 kmh 30.07 in1018.3 mb - 0.00 in0.0 mm 0.51 in13.0 mm
09:45 PM 73.4°F23.0°C 71.3°F21.8°C 93% 0.2 mph NE0.3 kmh NE 2.0 mph3.2 kmh 30.08 in1018.6 mb - 0.00 in0.0 mm 0.51 in13.0 mm
10:00 PM 73.1°F22.8°C 71.0°F21.7°C 93% 0.9 mph N1.4 kmh N 3.0 mph4.8 kmh 30.07 in1018.3 mb - 0.00 in0.0 mm 0.51 in13.0 mm
10:15 PM 73.1°F22.8°C 70.9°F21.6°C 93% 0.1 mph SW0.2 kmh SW 1.0 mph1.6 kmh 30.08 in1018.6 mb - 0.00 in0.0 mm 0.51 in13.0 mm
10:30 PM 73.0°F22.8°C 71.2°F21.8°C 94% 0.1 mph WSW0.2 kmh WSW 1.0 mph1.6 kmh 30.08 in1018.6 mb - 0.00 in0.0 mm 0.51 in13.0 mm
10:45 PM 73.0°F22.8°C 71.2°F21.8°C 94% 0.1 mph WSW0.2 kmh WSW 2.0 mph3.2 kmh 30.08 in1018.6 mb - 0.00 in0.0 mm 0.51 in13.0 mm
11:00 PM 73.0°F22.8°C 71.2°F21.8°C 94% 1.3 mph NNE2.1 kmh NNE 5.0 mph8.0 kmh 30.08 in1018.6 mb - 0.00 in0.0 mm 0.51 in13.0 mm
11:15 PM 72.9°F22.7°C 70.8°F21.6°C 93% Calm Calm 3.0 mph4.8 kmh 30.08 in1018.6 mb - 0.00 in0.0 mm 0.51 in13.0 mm
11:30 PM 72.9°F22.7°C 70.8°F21.6°C 93% 0.6 mph WSW1.0 kmh WSW 3.0 mph4.8 kmh 30.08 in1018.6 mb - 0.00 in0.0 mm 0.51 in13.0 mm
11:45 PM 72.8°F22.7°C 70.7°F21.5°C 93% 2.1 mph NW3.4 kmh NW 3.0 mph4.8 kmh 30.08 in1018.6 mb - 0.00 in0.0 mm 0.51 in13.0 mm